Time;durP1;ratioP1;P1;durP2;ratioP2;P2;SDS_P1;SDS_P2;PMS_P1;PMS_P2;Temp;Humidity;BMP_temperature;BMP_pressure;BME280_temperature;BME280_humidity;BME280_pressure;Samples;Min_cycle;Max_cycle;Signal;HPM_P1;HPM_P2
2022/08/06 00:07:50;;;;;;;;;;;;;;;26.96;42.00;99991.84;20406346;28;98551;-80
2022/08/06 00:17:50;;;;;;;;;;;;;;;26.38;43.61;100004.22;20464682;28;98440;-79
2022/08/06 00:27:50;;;;;;;;;;;;;;;26.65;42.71;100005.75;20405766;28;101417;-79
2022/08/06 00:37:51;;;;;;;;;;;;;;;26.41;44.00;100000.41;20422820;28;102007;-81
2022/08/06 00:47:54;;;;;;;;;;;;;;;26.49;43.68;100005.75;20412828;28;99054;-82
2022/08/06 00:57:54;;;;;;;;;;;;;;;26.32;43.74;100005.69;20418664;28;98382;-78
2022/08/06 01:07:56;;;;;;;;;;;;;;;26.15;43.90;99996.84;20450989;28;100815;-77
2022/08/06 01:18:03;;;;;;;;;;;;;;;26.14;43.64;99987.22;20398181;28;98687;-77
2022/08/06 01:28:09;;;;;;;;;;;;;;;26.18;43.58;99988.59;20420401;28;101388;-77
2022/08/06 01:38:11;;;;;;;;;;;;;;;25.92;44.17;99990.47;20403584;28;99411;-78
2022/08/06 01:48:15;;;;;;;;;;;;;;;26.07;43.80;99980.91;20399212;28;101259;-79
2022/08/06 01:58:17;;;;;;;;;;;;;;;25.95;44.53;99992.78;20480756;28;98790;-80
2022/08/06 02:08:19;;;;;;;;;;;;;;;25.86;44.58;99983.97;20491921;28;98456;-78
2022/08/06 02:18:21;;;;;;;;;;;;;;;25.59;45.74;99990.31;20486395;28;97817;-79
2022/08/06 02:28:23;;;;;;;;;;;;;;;25.38;45.89;99989.69;20434746;28;100713;-78
2022/08/06 02:38:38;;;;;;;;;;;;;;;25.49;45.86;99991.25;20425603;28;98574;-79
2022/08/06 02:48:42;;;;;;;;;;;;;;;25.50;45.32;99989.41;20413680;28;100958;-79
2022/08/06 02:58:44;;;;;;;;;;;;;;;25.43;45.23;99991.88;20416114;28;98798;-79
2022/08/06 03:08:45;;;;;;;;;;;;;;;25.51;45.16;99989.28;20435737;28;98009;-79
2022/08/06 03:18:46;;;;;;;;;;;;;;;25.35;45.62;99987.31;20423915;28;101541;-79
2022/08/06 03:28:49;;;;;;;;;;;;;;;25.38;45.35;99989.69;20413099;28;98640;-79
2022/08/06 03:38:53;;;;;;;;;;;;;;;25.31;45.71;99987.78;20424675;28;101158;-79
2022/08/06 03:48:53;;;;;;;;;;;;;;;25.24;45.62;100001.66;20408694;28;101829;-77
2022/08/06 03:58:56;;;;;;;;;;;;;;;25.18;45.71;99999.63;20453438;28;99267;-80
2022/08/06 04:08:56;;;;;;;;;;;;;;;25.30;45.19;99996.72;20426273;28;97859;-79
2022/08/06 04:18:58;;;;;;;;;;;;;;;25.38;45.27;100010.88;20404260;28;101464;-80
2022/08/06 04:29:07;;;;;;;;;;;;;;;25.13;45.76;100027.56;20424693;28;102208;-80
2022/08/06 04:39:08;;;;;;;;;;;;;;;25.03;45.49;100030.31;20447684;27;101519;-80
2022/08/06 04:49:09;;;;;;;;;;;;;;;25.12;44.78;100041.78;20429724;28;100131;-80
2022/08/06 04:59:09;;;;;;;;;;;;;;;25.27;44.53;100037.63;20402490;28;100198;-77
2022/08/06 05:09:11;;;;;;;;;;;;;;;25.19;45.21;100040.19;20417919;28;99138;-79
2022/08/06 05:19:16;;;;;;;;;;;;;;;25.05;45.71;100044.25;20471770;27;98856;-81
2022/08/06 05:29:20;;;;;;;;;;;;;;;25.18;45.19;100044.69;20475273;28;101331;-81
2022/08/06 05:39:20;;;;;;;;;;;;;;;25.34;44.42;100053.72;20474307;28;101054;-79
2022/08/06 05:49:26;;;;;;;;;;;;;;;25.24;44.37;100054.66;20467752;28;99489;-79
2022/08/06 05:59:28;;;;;;;;;;;;;;;25.48;42.87;100066.44;20473974;28;99441;-80
2022/08/06 06:09:28;;;;;;;;;;;;;;;25.65;42.25;100063.91;20488276;28;99376;-78
2022/08/06 06:19:43;;;;;;;;;;;;;;;25.84;41.89;100068.16;20444714;28;100660;-78
2022/08/06 06:29:46;;;;;;;;;;;;;;;25.96;41.93;100084.63;20473938;28;102916;-77
2022/08/06 06:39:54;;;;;;;;;;;;;;;26.09;40.87;100084.25;20477921;28;99270;-78
2022/08/06 06:50:29;;;;;;;;;;;;;;;26.24;40.13;100089.78;20484516;28;97547;-75
2022/08/06 07:00:30;;;;;;;;;;;;;;;26.38;40.80;100078.56;20511194;28;98131;-76
2022/08/06 07:10:31;;;;;;;;;;;;;;;26.51;40.30;100086.88;20409470;28;99795;-78
2022/08/06 07:20:34;;;;;;;;;;;;;;;26.63;40.04;100084.75;20371297;28;103512;-77
2022/08/06 07:30:35;;;;;;;;;;;;;;;26.74;38.91;100094.22;20382554;28;100181;-77
2022/08/06 07:40:44;;;;;;;;;;;;;;;26.87;39.27;100095.59;20391823;28;99238;-79
2022/08/06 07:50:48;;;;;;;;;;;;;;;26.95;40.00;100096.47;20402545;28;98196;-78
2022/08/06 08:00:48;;;;;;;;;;;;;;;27.05;40.17;100098.97;20403957;28;101088;-79
2022/08/06 08:10:49;;;;;;;;;;;;;;;27.15;39.21;100090.84;20413382;28;99337;-79
2022/08/06 08:20:49;;;;;;;;;;;;;;;27.24;39.33;100100.47;20418776;28;98669;-80
2022/08/06 08:30:50;;;;;;;;;;;;;;;27.31;39.46;100098.81;20400187;28;99460;-78
2022/08/06 08:40:53;;;;;;;;;;;;;;;27.41;39.61;100090.69;20422445;28;99079;-81
2022/08/06 08:50:55;;;;;;;;;;;;;;;27.55;38.48;100104.31;20440440;28;98541;-80
2022/08/06 09:00:56;;;;;;;;;;;;;;;27.60;38.51;100093.97;20417896;28;98079;-81
2022/08/06 09:10:56;;;;;;;;;;;;;;;27.72;37.70;100091.81;20435074;28;97943;-79
2022/08/06 09:20:59;;;;;;;;;;;;;;;27.87;36.15;100095.44;20441164;28;98427;-75
2022/08/06 09:31:04;;;;;;;;;;;;;;;28.00;35.75;100099.38;20433034;28;98828;-76
2022/08/06 09:41:09;;;;;;;;;;;;;;;28.07;36.51;100097.75;20419630;28;98546;-75
2022/08/06 09:51:20;;;;;;;;;;;;;;;28.15;35.98;100083.56;20397970;28;101370;-74
2022/08/06 10:01:21;;;;;;;;;;;;;;;28.24;36.30;100072.69;20405290;28;98062;-75
2022/08/06 10:11:35;;;;;;;;;;;;;;;28.24;38.05;100074.53;20410236;28;100519;-75
2022/08/06 10:21:35;;;;;;;;;;;;;;;28.20;38.94;100081.22;20430240;28;98947;-75
2022/08/06 10:31:36;;;;;;;;;;;;;;;28.21;40.21;100074.88;20457395;28;98705;-77
2022/08/06 10:41:38;;;;;;;;;;;;;;;28.23;41.57;100075.53;20453331;28;97726;-73
2022/08/06 10:51:40;;;;;;;;;;;;;;;28.26;42.01;100065.38;20503676;27;97577;-74
2022/08/06 11:01:49;;;;;;;;;;;;;;;28.29;42.37;100066.84;20500828;28;98677;-75
2022/08/06 11:12:08;;;;;;;;;;;;;;;28.31;42.29;100046.22;20490623;28;100469;-74
2022/08/06 11:22:28;;;;;;;;;;;;;;;28.34;42.30;100051.19;20489308;28;98732;-75
2022/08/06 11:32:45;;;;;;;;;;;;;;;28.40;42.90;100039.84;20486779;28;98728;-75
2022/08/06 11:42:45;;;;;;;;;;;;;;;28.49;43.52;100026.47;20489041;28;101027;-75
2022/08/06 11:52:46;;;;;;;;;;;;;;;28.55;43.79;100033.75;20492035;28;100352;-72
2022/08/06 12:02:50;;;;;;;;;;;;;;;28.58;43.84;100023.56;20477217;28;98744;-72
2022/08/06 12:12:50;;;;;;;;;;;;;;;28.64;44.01;100013.22;20479145;28;100065;-72
2022/08/06 12:22:51;;;;;;;;;;;;;;;28.71;44.61;100011.53;20498440;28;98620;-73
2022/08/06 12:33:00;;;;;;;;;;;;;;;28.75;44.72;100010.19;20505449;28;97106;-74
2022/08/06 12:43:01;;;;;;;;;;;;;;;28.83;46.04;100027.94;20481400;28;97823;-71
2022/08/06 12:53:02;;;;;;;;;;;;;;;28.88;46.63;100026.41;20482594;28;97672;-75
2022/08/06 13:03:03;;;;;;;;;;;;;;;28.92;47.61;100022.38;20484660;28;100994;-75
2022/08/06 13:13:09;;;;;;;;;;;;;;;28.97;47.87;100031.69;20473571;28;98469;-75
2022/08/06 13:23:10;;;;;;;;;;;;;;;28.94;46.70;100022.16;20504555;28;98203;-76
2022/08/06 13:33:12;;;;;;;;;;;;;;;28.95;46.38;100023.03;20486904;28;99769;-75
2022/08/06 13:43:13;;;;;;;;;;;;;;;28.95;45.76;100029.16;20490078;28;97730;-76
2022/08/06 13:53:13;;;;;;;;;;;;;;;28.95;45.45;100033.69;20501361;28;98091;-74
2022/08/06 14:03:14;;;;;;;;;;;;;;;28.98;45.33;100026.16;20496947;28;98493;-76
2022/08/06 14:13:17;;;;;;;;;;;;;;;29.02;45.21;100029.28;20496125;28;98585;-76
2022/08/06 14:23:18;;;;;;;;;;;;;;;29.00;45.03;100029.47;20492337;28;98753;-76
2022/08/06 14:33:19;;;;;;;;;;;;;;;28.99;44.67;100040.31;20494328;28;97902;-76
2022/08/06 14:53:39;;;;;;;;;;;;;;;29.00;44.85;100069.47;20483543;27;100737;-75
2022/08/06 15:03:39;;;;;;;;;;;;;;;29.02;44.50;100091.41;20489253;28;100234;-75
2022/08/06 15:13:40;;;;;;;;;;;;;;;29.00;44.54;100100.59;20499527;28;97918;-76
2022/08/06 15:23:43;;;;;;;;;;;;;;;28.97;44.37;100112.44;20493484;28;98356;-76
2022/08/06 15:33:44;;;;;;;;;;;;;;;28.98;44.29;100115.94;20504461;28;98504;-76
2022/08/06 15:43:44;;;;;;;;;;;;;;;29.00;44.46;100128.09;20489714;28;98027;-77
2022/08/06 15:53:45;;;;;;;;;;;;;;;29.02;44.20;100136.72;20502451;28;101607;-76
2022/08/06 16:03:45;;;;;;;;;;;;;;;29.02;44.11;100134.06;20479964;28;98454;-77
2022/08/06 16:13:45;;;;;;;;;;;;;;;29.00;44.13;100143.25;20491927;28;98612;-77
2022/08/06 16:23:46;;;;;;;;;;;;;;;28.97;44.03;100149.75;20485345;28;99351;-76
2022/08/06 16:33:46;;;;;;;;;;;;;;;28.95;43.93;100153.63;20486125;28;98222;-77
2022/08/06 16:43:49;;;;;;;;;;;;;;;28.90;44.13;100160.28;20465263;28;98038;-76
2022/08/06 16:53:49;;;;;;;;;;;;;;;28.90;43.91;100172.78;20506051;28;99263;-76
2022/08/06 17:03:49;;;;;;;;;;;;;;;28.89;43.99;100184.44;20497131;28;98901;-76
2022/08/06 17:13:50;;;;;;;;;;;;;;;28.85;43.96;100199.16;20502531;28;97908;-77
2022/08/06 17:23:50;;;;;;;;;;;;;;;28.83;44.16;100209.13;20500242;28;97673;-76
2022/08/06 17:33:50;;;;;;;;;;;;;;;28.77;43.83;100215.97;20491273;28;101508;-76
2022/08/06 17:43:50;;;;;;;;;;;;;;;28.70;44.25;100221.19;20506645;28;99558;-76
2022/08/06 17:53:52;;;;;;;;;;;;;;;28.64;44.20;100229.84;20505445;28;98470;-77
2022/08/06 18:03:52;;;;;;;;;;;;;;;28.60;44.27;100237.34;20495563;27;97202;-76
2022/08/06 18:13:53;;;;;;;;;;;;;;;28.58;44.34;100241.19;20495148;28;98307;-77
2022/08/06 18:23:53;;;;;;;;;;;;;;;28.61;44.14;100259.47;20507156;28;97435;-77
2022/08/06 18:33:54;;;;;;;;;;;;;;;28.59;44.30;100270.31;20491776;28;98057;-77
2022/08/06 18:43:54;;;;;;;;;;;;;;;28.58;44.31;100283.81;20486279;28;98563;-76
2022/08/06 18:53:54;;;;;;;;;;;;;;;28.52;44.18;100306.63;20498747;28;98926;-76
2022/08/06 19:03:55;;;;;;;;;;;;;;;28.50;44.07;100313.13;20465746;28;98320;-77
2022/08/06 19:13:56;;;;;;;;;;;;;;;28.47;43.96;100318.81;20475007;28;98526;-77
2022/08/06 19:23:56;;;;;;;;;;;;;;;28.42;44.00;100320.13;20479462;28;97998;-77
2022/08/06 19:33:57;;;;;;;;;;;;;;;28.46;43.97;100325.13;20471634;28;97717;-77
2022/08/06 19:43:57;;;;;;;;;;;;;;;28.47;43.89;100335.59;20491819;28;97778;-76
2022/08/06 19:53:59;;;;;;;;;;;;;;;28.48;44.16;100341.75;20477512;28;98750;-76
2022/08/06 20:04:00;;;;;;;;;;;;;;;28.47;43.92;100350.75;20482064;28;101234;-76
2022/08/06 20:14:00;;;;;;;;;;;;;;;28.46;43.69;100343.78;20508203;28;100608;-76
2022/08/06 20:24:00;;;;;;;;;;;;;;;28.41;43.62;100355.75;20500003;28;98431;-76
2022/08/06 20:34:01;;;;;;;;;;;;;;;28.36;43.63;100360.75;20495848;28;97849;-77
2022/08/06 20:44:05;;;;;;;;;;;;;;;28.34;43.64;100368.06;20501820;27;97497;-76
2022/08/06 20:54:05;;;;;;;;;;;;;;;28.34;43.50;100381.38;20490912;27;98531;-76
2022/08/06 21:04:05;;;;;;;;;;;;;;;28.33;43.41;100385.06;20505176;28;98816;-76
2022/08/06 21:14:06;;;;;;;;;;;;;;;28.35;43.40;100387.53;20505125;28;98057;-76
2022/08/06 21:24:07;;;;;;;;;;;;;;;28.36;43.37;100392.69;20504163;28;97909;-77
2022/08/06 21:34:07;;;;;;;;;;;;;;;28.34;43.37;100391.19;20503387;28;97787;-77
2022/08/06 21:44:07;;;;;;;;;;;;;;;28.28;43.53;100385.56;20491364;27;99631;-77
2022/08/06 21:54:08;;;;;;;;;;;;;;;28.25;43.78;100409.00;20491966;28;98499;-76
2022/08/06 22:04:08;;;;;;;;;;;;;;;28.23;43.46;100401.16;20491040;28;98566;-76
2022/08/06 22:14:09;;;;;;;;;;;;;;;28.22;43.63;100415.50;20490589;28;98527;-76
2022/08/06 22:24:09;;;;;;;;;;;;;;;28.23;43.43;100433.13;20476612;28;99570;-76
2022/08/06 22:34:10;;;;;;;;;;;;;;;28.25;43.57;100428.47;20486421;28;98496;-75
2022/08/06 22:44:10;;;;;;;;;;;;;;;28.27;43.43;100437.13;20488348;28;100676;-76
2022/08/06 22:54:10;;;;;;;;;;;;;;;28.27;43.12;100426.47;20479159;28;98539;-76
2022/08/06 23:04:10;;;;;;;;;;;;;;;28.26;43.18;100431.97;20488212;28;98176;-76
2022/08/06 23:14:12;;;;;;;;;;;;;;;28.23;43.38;100427.78;20477722;28;98313;-76
2022/08/06 23:24:12;;;;;;;;;;;;;;;28.20;43.19;100422.00;20467359;28;97838;-76
2022/08/06 23:34:12;;;;;;;;;;;;;;;28.21;43.35;100432.47;20484540;28;99174;-75
2022/08/06 23:44:13;;;;;;;;;;;;;;;28.20;43.57;100430.81;20489875;28;97212;-75
2022/08/06 23:54:14;;;;;;;;;;;;;;;28.21;43.52;100435.13;20491908;28;98741;-76
